createdAt,value
2019-05-15T00:01:28.546Z,5.10
2019-05-15T00:03:58.412Z,5.00
2019-05-15T00:06:28.371Z,4.90
2019-05-15T00:08:55.576Z,4.90
2019-05-15T00:11:23.379Z,4.90
2019-05-15T00:14:10.619Z,4.90
2019-05-15T00:16:38.818Z,5.20
2019-05-15T00:19:08.616Z,4.80
2019-05-15T00:21:38.244Z,4.80
2019-05-15T00:24:12.727Z,4.80
2019-05-15T00:26:38.355Z,4.70
2019-05-15T00:29:12.775Z,4.70
2019-05-15T00:31:35.395Z,4.70
2019-05-15T00:34:03.252Z,4.70
2019-05-15T00:36:31.085Z,4.60
2019-05-15T00:38:59.137Z,4.50
2019-05-15T00:41:27.886Z,4.50
2019-05-15T00:43:55.736Z,4.40
2019-05-15T00:46:42.943Z,4.40
2019-05-15T00:49:10.728Z,4.80
2019-05-15T00:51:39.148Z,4.40
2019-05-15T00:54:08.421Z,4.30
2019-05-15T00:56:36.486Z,4.30
2019-05-15T00:59:04.906Z,4.20
2019-05-15T01:01:32.884Z,4.20
2019-05-15T01:04:00.660Z,4.10
2019-05-15T01:06:28.615Z,4.10
2019-05-15T01:08:58.702Z,4.40
2019-05-15T01:11:28.362Z,4.10
2019-05-15T01:13:55.734Z,4.60
2019-05-15T01:16:23.506Z,4.30
2019-05-15T01:18:51.268Z,4.00
2019-05-15T01:21:19.129Z,3.90
2019-05-15T01:23:48.424Z,3.90
2019-05-15T01:26:18.677Z,3.90
2019-05-15T01:28:49.509Z,3.80
2019-05-15T01:31:19.072Z,4.00
2019-05-15T01:33:51.917Z,3.90
2019-05-15T01:36:19.731Z,3.80
2019-05-15T01:38:48.061Z,3.80
2019-05-15T01:41:15.974Z,4.30
2019-05-15T01:43:43.899Z,4.10
2019-05-15T01:46:11.708Z,3.60
2019-05-15T01:48:39.497Z,3.60
2019-05-15T01:51:09.346Z,3.70
2019-05-15T01:53:38.514Z,3.50
2019-05-15T01:56:08.486Z,3.50
2019-05-15T01:58:38.213Z,3.50
2019-05-15T02:01:08.051Z,3.90
2019-05-15T02:03:38.320Z,2.50
2019-05-15T02:06:08.021Z,3.60
2019-05-15T02:08:35.459Z,4.10
2019-05-15T02:11:03.233Z,3.50
2019-05-15T02:13:31.212Z,3.50
2019-05-15T02:15:59.053Z,3.40
2019-05-15T02:18:28.508Z,3.40
2019-05-15T02:20:58.721Z,3.40
2019-05-15T02:23:28.091Z,3.30
2019-05-15T02:25:56.021Z,3.30
2019-05-15T02:28:23.794Z,3.30
2019-05-15T02:30:51.639Z,3.30
2019-05-15T02:33:20.486Z,3.20
2019-05-15T02:35:50.259Z,3.20
2019-05-15T02:38:19.955Z,3.20
2019-05-15T02:40:49.382Z,3.30
2019-05-15T02:43:18.982Z,3.10
2019-05-15T02:45:50.398Z,3.00
2019-05-15T02:48:19.942Z,3.00
2019-05-15T02:50:49.850Z,2.90
2019-05-15T02:53:18.937Z,2.90
2019-05-15T02:55:49.208Z,2.90
2019-05-15T02:58:20.450Z,2.90
2019-05-15T03:00:49.568Z,3.50
2019-05-15T03:03:15.705Z,2.90
2019-05-15T03:05:43.531Z,2.80
2019-05-15T03:08:11.327Z,3.00
2019-05-15T03:10:40.721Z,2.80
2019-05-15T03:13:14.469Z,2.80
2019-05-15T03:15:42.290Z,2.80
2019-05-15T03:18:10.330Z,3.40
2019-05-15T03:20:38.973Z,2.70
2019-05-15T03:23:09.787Z,2.60
2019-05-15T03:25:40.116Z,2.90
2019-05-15T03:28:10.094Z,2.50
2019-05-15T03:31:06.736Z,2.50
2019-05-15T03:33:11.497Z,2.40
2019-05-15T03:35:41.993Z,2.80
2019-05-15T03:38:09.245Z,3.00
2019-05-15T03:40:39.473Z,2.30
2019-05-15T03:43:08.886Z,2.30
2019-05-15T03:45:36.061Z,2.40
2019-05-15T03:48:03.952Z,2.20
2019-05-15T03:50:31.791Z,2.20
2019-05-15T03:52:59.627Z,2.20
2019-05-15T03:55:29.628Z,2.60
2019-05-15T03:57:59.208Z,2.20
2019-05-15T04:00:29.871Z,2.20
2019-05-15T04:02:58.949Z,2.80
2019-05-15T04:05:29.134Z,2.20
2019-05-15T04:07:59.511Z,2.20
2019-05-15T04:10:28.620Z,2.30
2019-05-15T04:13:26.030Z,2.40
2019-05-15T04:15:53.841Z,2.20
2019-05-15T04:18:21.638Z,2.30
2019-05-15T04:20:49.627Z,2.40
2019-05-15T04:23:23.008Z,2.40
2019-05-15T04:25:52.983Z,2.30
2019-05-15T04:28:21.336Z,2.70
2019-05-15T04:30:49.632Z,2.40
2019-05-15T04:33:19.916Z,2.50
2019-05-15T04:35:49.726Z,2.40
2019-05-15T04:38:19.526Z,2.70
2019-05-15T04:40:49.940Z,2.50
2019-05-15T04:43:19.410Z,3.00
2019-05-15T04:45:49.597Z,2.70
2019-05-15T04:48:35.780Z,3.20
2019-05-15T04:51:05.836Z,3.70
2019-05-15T04:53:33.834Z,2.80
2019-05-15T04:56:01.655Z,3.00
2019-05-15T04:58:29.881Z,3.10
2019-05-15T05:00:59.837Z,3.20
2019-05-15T05:03:29.323Z,3.40
2019-05-15T05:05:59.139Z,3.50
2019-05-15T05:08:29.003Z,3.70
2019-05-15T05:10:59.243Z,3.80
2019-05-15T05:13:31.923Z,3.90
2019-05-15T05:15:59.718Z,4.00
2019-05-15T05:18:48.816Z,4.20
2019-05-15T05:21:18.420Z,4.70
2019-05-15T05:23:48.410Z,4.60
2019-05-15T05:26:18.331Z,4.70
2019-05-15T05:28:45.709Z,5.00
2019-05-15T05:31:14.305Z,5.40
2019-05-15T05:33:42.334Z,7.10
2019-05-15T05:36:12.035Z,9.40
2019-05-15T05:38:39.811Z,11.50
2019-05-15T05:41:08.291Z,13.00
2019-05-15T05:43:38.374Z,13.30
2019-05-15T05:46:05.972Z,14.00
2019-05-15T05:48:33.988Z,14.80
2019-05-15T05:51:01.813Z,15.60
2019-05-15T05:53:29.580Z,16.40
2019-05-15T05:55:58.058Z,16.80
2019-05-15T05:58:26.016Z,17.50
2019-05-15T06:00:53.812Z,18.30
2019-05-15T06:03:21.550Z,18.70
2019-05-15T06:05:49.927Z,19.10
2019-05-15T06:08:19.504Z,19.70
2019-05-15T06:10:49.520Z,20.40
2019-05-15T06:13:18.508Z,20.40
2019-05-15T06:15:48.825Z,20.40
2019-05-15T06:18:19.143Z,20.50
2019-05-15T06:20:46.095Z,20.90
2019-05-15T06:23:13.884Z,20.60
2019-05-15T06:25:44.038Z,21.10
2019-05-15T06:28:11.824Z,20.80
2019-05-15T06:30:41.406Z,21.20
2019-05-15T06:33:13.262Z,21.30
2019-05-15T06:35:39.547Z,21.50
2019-05-15T06:38:08.522Z,21.80
2019-05-15T06:40:36.613Z,21.90
2019-05-15T06:43:04.390Z,22.10
2019-05-15T06:45:32.195Z,22.00
2019-05-15T06:48:01.582Z,22.40
2019-05-15T06:50:39.666Z,23.20
2019-05-15T06:53:10.662Z,24.00
2019-05-15T06:55:38.792Z,24.40
2019-05-15T06:58:09.214Z,24.30
2019-05-15T07:00:39.111Z,24.90
2019-05-15T07:03:20.160Z,25.10
2019-05-15T07:05:38.516Z,24.80
2019-05-15T07:08:06.103Z,26.10
2019-05-15T07:10:33.898Z,26.00
2019-05-15T07:13:01.715Z,25.70
2019-05-15T07:15:29.510Z,24.90
2019-05-15T07:17:58.035Z,24.80
2019-05-15T07:20:28.494Z,23.90
2019-05-15T07:22:58.638Z,23.10
2019-05-15T07:25:29.191Z,23.00
2019-05-15T07:27:58.093Z,22.20
2019-05-15T07:30:28.614Z,22.50
2019-05-15T07:32:58.591Z,22.40
2019-05-15T07:35:28.812Z,22.20
2019-05-15T07:37:58.616Z,22.50
2019-05-15T07:40:29.010Z,22.60
2019-05-15T07:43:28.733Z,22.70
2019-05-15T07:45:58.788Z,23.70
2019-05-15T07:48:28.868Z,23.90
2019-05-15T07:50:55.911Z,25.10
2019-05-15T07:53:23.725Z,25.20
2019-05-15T07:55:51.613Z,25.90
2019-05-15T07:58:21.643Z,25.10
2019-05-15T08:00:49.598Z,24.80
2019-05-15T08:03:18.431Z,25.00
2019-05-15T08:05:57.985Z,24.90
2019-05-15T08:08:18.395Z,24.70
2019-05-15T08:10:48.557Z,23.90
2019-05-15T08:13:31.087Z,23.90
2019-05-15T08:15:58.874Z,22.80
2019-05-15T08:18:29.088Z,23.30
2019-05-15T08:20:58.546Z,22.90
2019-05-15T08:23:31.691Z,23.70
2019-05-15T08:25:59.860Z,22.50
2019-05-15T08:28:28.806Z,24.20
2019-05-15T08:30:58.398Z,24.70
2019-05-15T08:33:28.038Z,24.00
2019-05-15T08:35:58.610Z,23.40
2019-05-15T08:38:25.707Z,24.20
2019-05-15T08:40:53.547Z,23.00
2019-05-15T08:43:22.567Z,24.20
2019-05-15T08:45:50.352Z,23.00
2019-05-15T08:48:18.602Z,22.60
2019-05-15T08:50:48.807Z,23.60
2019-05-15T08:53:28.757Z,24.20
2019-05-15T08:55:58.832Z,24.40
2019-05-15T08:58:28.895Z,24.00
2019-05-15T09:00:58.575Z,24.10
2019-05-15T09:03:28.468Z,24.20
2019-05-15T09:05:58.981Z,23.80
2019-05-15T09:08:29.261Z,25.50
2019-05-15T09:10:58.749Z,25.50
2019-05-15T09:13:29.060Z,23.30
2019-05-15T09:15:58.705Z,24.20
2019-05-15T09:18:28.350Z,23.70
2019-05-15T09:20:59.093Z,24.20
2019-05-15T09:23:28.857Z,24.70
2019-05-15T09:25:57.881Z,24.60
2019-05-15T09:28:25.772Z,24.40
2019-05-15T09:30:53.630Z,24.90
2019-05-15T09:33:21.793Z,24.90
2019-05-15T09:35:49.617Z,25.70
2019-05-15T09:38:18.425Z,25.00
2019-05-15T09:40:50.310Z,24.80
2019-05-15T09:43:28.521Z,25.30
2019-05-15T09:45:58.278Z,25.50
2019-05-15T09:48:28.621Z,26.30
2019-05-15T09:50:58.725Z,26.30
2019-05-15T09:53:28.564Z,24.90
2019-05-15T09:55:56.634Z,25.90
2019-05-15T09:58:24.457Z,25.90
2019-05-15T10:00:53.555Z,26.00
2019-05-15T10:03:21.857Z,26.30
2019-05-15T10:05:49.721Z,25.70
2019-05-15T10:08:20.955Z,26.50
2019-05-15T10:10:48.859Z,26.40
2019-05-15T10:13:18.469Z,25.90
2019-05-15T10:15:50.521Z,25.60
2019-05-15T10:18:18.749Z,25.80
2019-05-15T10:20:46.016Z,24.90
2019-05-15T10:23:13.983Z,25.00
2019-05-15T10:25:41.714Z,24.20
2019-05-15T10:28:10.081Z,24.20
2019-05-15T10:30:39.454Z,23.90
2019-05-15T10:33:08.519Z,22.60
2019-05-15T10:35:39.130Z,22.10
2019-05-15T10:38:08.676Z,23.00
2019-05-15T10:40:35.925Z,23.30
2019-05-15T10:43:03.781Z,23.10
2019-05-15T10:45:31.600Z,24.00
2019-05-15T10:47:59.378Z,23.70
2019-05-15T10:50:28.500Z,23.50
2019-05-15T10:52:56.660Z,22.60
2019-05-15T10:55:24.447Z,20.80
2019-05-15T10:57:52.270Z,20.80
2019-05-15T11:00:20.976Z,20.70
2019-05-15T11:02:49.147Z,20.70
2019-05-15T11:05:18.073Z,20.80
2019-05-15T11:07:48.225Z,21.00
2019-05-15T11:10:18.389Z,21.00
2019-05-15T11:12:50.596Z,20.60
2019-05-15T11:15:19.679Z,21.30
2019-05-15T11:17:49.192Z,20.50
2019-05-15T11:20:18.808Z,20.50
2019-05-15T11:22:49.651Z,21.40
2019-05-15T11:25:17.453Z,22.30
2019-05-15T11:27:45.246Z,23.30
2019-05-15T11:30:14.181Z,21.40
2019-05-15T11:32:41.986Z,20.70
2019-05-15T11:35:10.916Z,20.70
2019-05-15T11:37:45.544Z,21.40
2019-05-15T11:40:12.767Z,22.00
2019-05-15T11:42:40.589Z,21.10
2019-05-15T11:45:10.532Z,21.00
2019-05-15T11:47:39.509Z,21.30
2019-05-15T11:50:08.570Z,21.80
2019-05-15T11:52:39.896Z,21.80
2019-05-15T11:55:08.419Z,22.70
2019-05-15T11:57:43.496Z,21.70
2019-05-15T12:00:15.046Z,21.00
2019-05-15T12:02:42.791Z,20.20
2019-05-15T12:05:10.939Z,20.80
2019-05-15T12:07:38.803Z,20.10
2019-05-15T12:10:10.385Z,20.00
2019-05-15T12:12:38.587Z,19.60
2019-05-15T12:15:08.551Z,20.10
2019-05-15T12:17:38.812Z,19.90
2019-05-15T12:20:07.813Z,20.10
2019-05-15T12:22:38.950Z,19.70
2019-05-15T12:25:09.876Z,19.60
2019-05-15T12:27:39.990Z,19.30
2019-05-15T12:30:10.092Z,19.50
2019-05-15T12:32:40.431Z,19.90
2019-05-15T12:35:08.959Z,19.40
2019-05-15T12:37:39.787Z,20.00
2019-05-15T13:00:10.585Z,19.00
2019-05-15T13:02:43.606Z,18.90
2019-05-15T13:05:11.611Z,19.80
2019-05-15T13:07:39.473Z,19.80
2019-05-15T13:10:08.987Z,20.70
2019-05-15T13:12:47.733Z,20.80
2019-05-15T13:15:08.250Z,21.60
2019-05-15T13:17:38.542Z,21.60
2019-05-15T13:20:06.805Z,21.20
2019-05-15T13:22:36.431Z,20.80
2019-05-15T13:25:05.242Z,20.60
2019-05-15T13:27:33.068Z,20.70
2019-05-15T13:30:00.880Z,19.60
2019-05-15T13:32:28.936Z,18.90
2019-05-15T13:34:59.478Z,18.20
2019-05-15T13:37:30.480Z,18.50
2019-05-15T13:39:58.537Z,18.30
2019-05-15T13:42:31.040Z,17.80
2019-05-15T13:44:58.980Z,18.20
2019-05-15T13:47:28.205Z,17.80
2019-05-15T13:49:58.480Z,18.20
2019-05-15T13:52:31.032Z,18.90
2019-05-15T13:54:58.883Z,18.50
2019-05-15T13:57:29.724Z,19.30
2019-05-15T13:59:58.756Z,20.40
2019-05-15T14:02:28.103Z,21.10
2019-05-15T14:04:58.300Z,21.80
2019-05-15T14:07:25.897Z,22.40
2019-05-15T14:09:53.754Z,22.10
2019-05-15T14:12:21.915Z,23.10
2019-05-15T14:14:49.925Z,23.10
2019-05-15T14:17:17.810Z,22.00
2019-05-15T14:19:45.619Z,20.70
2019-05-15T14:22:13.566Z,20.30
2019-05-15T14:24:41.357Z,19.40
2019-05-15T14:27:09.188Z,18.50
2019-05-15T14:29:37.039Z,18.40
2019-05-15T14:32:04.999Z,18.00
2019-05-15T14:34:32.990Z,17.70
2019-05-15T14:37:01.147Z,17.30
2019-05-15T14:39:28.954Z,17.10
2019-05-15T14:41:58.368Z,17.00
2019-05-15T14:44:26.342Z,16.50
2019-05-15T14:46:54.145Z,16.50
2019-05-15T14:49:21.964Z,16.60
2019-05-15T14:52:04.256Z,16.80
2019-05-15T14:54:19.599Z,16.70
2019-05-15T14:56:48.690Z,16.50
2019-05-15T14:59:16.545Z,16.50
2019-05-15T15:01:44.647Z,16.40
2019-05-15T15:04:12.421Z,16.40
2019-05-15T15:06:40.465Z,16.60
2019-05-15T15:09:08.901Z,16.40
2019-05-15T15:11:38.539Z,16.30
2019-05-15T15:14:08.585Z,15.80
2019-05-15T15:16:38.407Z,15.10
2019-05-15T15:19:06.187Z,15.20
2019-05-15T15:21:34.470Z,15.30
2019-05-15T15:24:02.230Z,14.90
2019-05-15T15:26:30.087Z,15.00
2019-05-15T15:28:59.031Z,14.90
2019-05-15T15:31:28.908Z,15.10
2019-05-15T15:33:57.925Z,14.80
2019-05-15T15:36:28.393Z,14.90
2019-05-15T15:38:55.979Z,14.60
2019-05-15T15:41:24.409Z,14.60
2019-05-15T15:43:52.411Z,14.60
2019-05-15T15:46:20.359Z,14.60
2019-05-15T15:48:48.429Z,14.40
2019-05-15T15:51:17.890Z,14.20
2019-05-15T15:53:48.003Z,14.10
2019-05-15T15:56:18.266Z,14.00
2019-05-15T15:58:45.772Z,14.20
2019-05-15T16:01:14.684Z,14.10
2019-05-15T16:03:42.724Z,14.10
2019-05-15T16:06:11.220Z,14.00
2019-05-15T16:08:52.060Z,13.60
2019-05-15T16:11:09.936Z,13.50
2019-05-15T16:13:39.094Z,13.60
2019-05-15T16:16:08.602Z,13.50
2019-05-15T16:18:38.594Z,13.50
2019-05-15T16:21:08.203Z,13.40
2019-05-15T16:23:38.577Z,13.20
2019-05-15T16:26:09.029Z,13.30
2019-05-15T16:28:39.069Z,13.30
2019-05-15T16:31:07.925Z,13.30
2019-05-15T16:33:38.834Z,13.00
2019-05-15T16:36:08.675Z,13.00
2019-05-15T16:38:38.801Z,13.00
2019-05-15T16:41:08.814Z,13.00
2019-05-15T16:43:57.493Z,12.90
2019-05-15T16:46:25.251Z,13.00
2019-05-15T16:48:53.055Z,13.00
2019-05-15T16:51:20.821Z,13.00
2019-05-15T16:53:48.979Z,12.70
2019-05-15T16:56:18.941Z,12.60
2019-05-15T16:58:48.066Z,12.60
2019-05-15T17:01:18.584Z,12.70
2019-05-15T17:03:45.926Z,12.70
2019-05-15T17:06:14.357Z,12.80
2019-05-15T17:08:42.184Z,12.80
2019-05-15T17:11:10.029Z,12.90
2019-05-15T17:13:39.377Z,12.80
2019-05-15T17:16:07.739Z,12.80
2019-05-15T17:18:38.005Z,12.80
2019-05-15T17:21:09.510Z,12.60
2019-05-15T17:23:35.397Z,12.60
2019-05-15T17:26:03.288Z,12.60
2019-05-15T17:28:31.051Z,12.60
2019-05-15T17:30:58.812Z,12.60
2019-05-15T17:33:28.911Z,12.60
2019-05-15T17:35:58.051Z,12.70
2019-05-15T17:38:28.495Z,12.70
2019-05-15T17:40:57.720Z,12.60
2019-05-15T17:43:30.756Z,12.60
2019-05-15T17:45:58.588Z,12.60
2019-05-15T17:48:28.841Z,12.60
2019-05-15T17:50:58.275Z,12.60
2019-05-15T17:53:31.007Z,12.60
2019-05-15T17:55:58.945Z,12.50
2019-05-15T17:58:28.894Z,12.50
2019-05-15T18:00:59.215Z,12.50
2019-05-15T18:03:28.698Z,12.50
2019-05-15T18:05:56.110Z,12.40
2019-05-15T18:08:23.937Z,12.40
2019-05-15T18:10:51.774Z,12.40
2019-05-15T18:13:19.578Z,12.40
2019-05-15T18:15:48.920Z,12.40
2019-05-15T18:18:18.660Z,12.40
2019-05-15T18:20:48.678Z,12.40
2019-05-15T18:23:18.724Z,12.30
2019-05-15T18:25:48.818Z,12.30
2019-05-15T18:28:18.499Z,12.30
2019-05-15T18:30:47.831Z,12.40
2019-05-15T18:33:15.700Z,12.30
2019-05-15T18:35:43.573Z,12.20
2019-05-15T18:38:11.383Z,12.10
2019-05-15T18:40:39.131Z,12.10
2019-05-15T18:43:10.413Z,12.10
2019-05-15T18:45:38.511Z,12.10
2019-05-15T18:48:06.288Z,12.00
2019-05-15T18:50:34.444Z,12.00
2019-05-15T18:53:02.905Z,11.50
2019-05-15T18:55:30.722Z,12.00
2019-05-15T18:58:02.803Z,12.00
2019-05-15T19:00:30.609Z,12.00
2019-05-15T19:02:59.568Z,11.90
2019-05-15T19:05:28.122Z,11.90
2019-05-15T19:07:57.941Z,11.90
2019-05-15T19:10:28.119Z,11.90
2019-05-15T19:12:57.905Z,11.80
2019-05-15T19:15:25.589Z,11.80
2019-05-15T19:17:53.640Z,11.80
2019-05-15T19:20:23.425Z,11.80
2019-05-15T19:22:58.693Z,11.80
2019-05-15T19:25:28.389Z,11.80
2019-05-15T19:27:56.168Z,11.80
2019-05-15T19:30:24.431Z,11.70
2019-05-15T19:32:52.281Z,11.70
2019-05-15T19:35:20.307Z,11.60
2019-05-15T19:37:48.930Z,11.60
2019-05-15T19:40:18.764Z,11.60
2019-05-15T19:42:48.820Z,11.60
2019-05-15T19:45:16.789Z,11.60
2019-05-15T19:47:44.611Z,11.50
2019-05-15T19:50:12.673Z,11.50
2019-05-15T19:52:42.075Z,11.50
2019-05-15T19:55:09.967Z,11.50
2019-05-15T19:57:38.942Z,11.50
2019-05-15T20:00:08.502Z,11.50
2019-05-15T20:02:38.080Z,11.40
2019-05-15T20:05:09.107Z,11.40
2019-05-15T20:07:38.960Z,11.30
2019-05-15T20:10:06.947Z,11.30
2019-05-15T20:12:34.755Z,11.40
2019-05-15T20:15:03.109Z,10.60
2019-05-15T20:17:32.768Z,11.30
2019-05-15T20:20:02.994Z,11.30
2019-05-15T20:22:30.818Z,11.20
2019-05-15T20:24:58.870Z,11.30
2019-05-15T20:27:28.181Z,11.30
2019-05-15T20:29:56.121Z,11.30
2019-05-15T20:32:23.930Z,11.40
2019-05-15T20:34:51.720Z,11.40
2019-05-15T20:37:19.533Z,11.50
2019-05-15T20:39:49.253Z,11.50
2019-05-15T20:42:18.152Z,11.50
2019-05-15T20:44:48.415Z,11.40
2019-05-15T20:47:18.556Z,11.30
2019-05-15T20:49:45.709Z,11.30
2019-05-15T20:52:13.538Z,11.30
2019-05-15T20:54:41.345Z,11.10
2019-05-15T20:57:10.340Z,11.10
2019-05-15T20:59:38.756Z,11.10
2019-05-15T21:02:08.127Z,11.00
2019-05-15T21:04:38.397Z,11.00
2019-05-15T21:07:07.904Z,10.90
2019-05-15T21:09:35.580Z,10.90
2019-05-15T21:12:03.513Z,10.90
2019-05-15T21:14:31.252Z,10.80
2019-05-15T21:16:59.184Z,10.80
2019-05-15T21:19:27.927Z,10.70
2019-05-15T21:21:56.021Z,10.70
2019-05-15T21:24:23.792Z,10.70
2019-05-15T21:26:51.586Z,10.60
2019-05-15T21:29:21.751Z,10.60
2019-05-15T21:31:54.730Z,10.60
2019-05-15T21:34:36.645Z,10.60
2019-05-15T21:36:52.291Z,10.60
2019-05-15T21:39:20.384Z,10.60
2019-05-15T21:41:48.877Z,10.60
2019-05-15T21:44:18.919Z,10.60
2019-05-15T21:46:49.822Z,10.60
2019-05-15T21:49:18.992Z,10.60
2019-05-15T21:51:47.843Z,10.50
2019-05-15T21:54:16.007Z,10.50
2019-05-15T21:56:47.543Z,10.40
2019-05-15T21:59:18.791Z,10.40
2019-05-15T22:01:58.954Z,10.40
2019-05-15T22:04:28.155Z,10.40
2019-05-15T22:07:53.473Z,10.40
2019-05-15T22:10:22.039Z,10.40
2019-05-15T22:13:09.611Z,10.40
2019-05-15T22:15:37.641Z,10.40
2019-05-15T22:18:10.967Z,10.30
2019-05-15T22:20:36.021Z,10.30
2019-05-15T22:23:03.795Z,10.30
2019-05-15T22:25:31.591Z,10.30
2019-05-15T22:28:01.104Z,10.30
2019-05-15T22:30:30.408Z,10.40
2019-05-15T22:32:58.893Z,10.40
2019-05-15T22:35:29.553Z,10.50
2019-05-15T22:37:58.439Z,10.50
2019-05-15T22:40:28.892Z,10.50
2019-05-15T22:42:59.205Z,10.50
2019-05-15T22:45:28.524Z,10.50
2019-05-15T22:47:58.669Z,10.30
2019-05-15T22:50:28.173Z,10.30
2019-05-15T22:52:58.384Z,10.30
2019-05-15T22:55:25.856Z,10.30
2019-05-15T22:57:53.594Z,10.30
2019-05-15T23:00:21.541Z,10.30
2019-05-15T23:02:49.675Z,10.20
2019-05-15T23:05:25.129Z,10.20
2019-05-15T23:07:48.182Z,10.20
2019-05-15T23:10:16.584Z,10.20
2019-05-15T23:12:54.447Z,10.30
2019-05-15T23:15:22.228Z,10.20
2019-05-15T23:17:50.344Z,10.20
2019-05-15T23:20:18.402Z,10.10
2019-05-15T23:23:10.917Z,10.10
2019-05-15T23:25:39.962Z,10.10
2019-05-15T23:28:08.540Z,10.20
2019-05-15T23:30:36.596Z,10.10
2019-05-15T23:33:14.525Z,10.10
2019-05-15T23:35:42.311Z,10.20
2019-05-15T23:38:10.100Z,10.10
2019-05-15T23:40:37.875Z,10.10
2019-05-15T23:43:08.673Z,10.00
2019-05-15T23:45:35.519Z,9.90
2019-05-15T23:48:03.324Z,9.90
2019-05-15T23:50:31.048Z,9.90
2019-05-15T23:52:59.099Z,9.90
2019-05-15T23:55:28.539Z,9.90
2019-05-15T23:57:58.429Z,9.90
